Terminal Aerodrome Forecast
Issued by NWS

Home | Current Version | Previous Version | Text Only | Print | Product List | Glossary On
Versions: 1 2 3 4 5 6 7 8 9 10 11 12 13 14 15 16 17 18 19 20 21 22 23 24
000
FTUS43 KIND 041900 AAB
TAFBMG
TAF AMD
KBMG 041955Z 0420/0518 33008KT 2SM -SN BR SCT015 OVC020
     FM050000 34008KT 5SM BR BKN035
     FM050300 35006KT P6SM OVC100
     FM051100 34008KT P6SM SCT250=

USA.gov is the U.S. government's official web portal to all federal, state and local government web resources and services.